createdAt,value
2019-04-07T00:00:17.749Z,22.87
2019-04-07T00:02:48.521Z,21.93
2019-04-07T00:05:19.620Z,21.75
2019-04-07T00:07:50.142Z,22.17
2019-04-07T00:10:20.551Z,21.10
2019-04-07T00:12:50.903Z,22.90
2019-04-07T00:15:23.064Z,22.32
2019-04-07T00:17:54.342Z,21.80
2019-04-07T00:20:25.331Z,20.92
2019-04-07T00:22:55.708Z,20.95
2019-04-07T00:25:26.140Z,20.52
2019-04-07T00:27:56.398Z,21.42
2019-04-07T00:30:26.738Z,21.05
2019-04-07T00:32:57.268Z,22.22
2019-04-07T00:35:31.988Z,20.65
2019-04-07T00:37:59.611Z,20.90
2019-04-07T00:40:32.979Z,21.00
2019-04-07T00:43:03.413Z,20.40
2019-04-07T00:45:33.780Z,20.95
2019-04-07T00:48:04.090Z,20.02
2019-04-07T00:50:34.723Z,20.68
2019-04-07T00:53:05.667Z,20.90
2019-04-07T00:55:36.048Z,21.70
2019-04-07T00:58:06.375Z,22.42
2019-04-07T01:00:38.798Z,21.82
2019-04-07T01:03:10.654Z,21.42
2019-04-07T01:05:43.432Z,21.68
2019-04-07T01:08:14.018Z,22.13
2019-04-07T01:10:44.291Z,20.92
2019-04-07T01:13:15.332Z,22.35
2019-04-07T01:15:46.003Z,22.48
2019-04-07T01:18:16.514Z,22.32
2019-04-07T01:20:46.921Z,22.13
2019-04-07T01:23:17.187Z,22.95
2019-04-07T01:25:48.307Z,22.45
2019-04-07T01:28:18.452Z,21.90
2019-04-07T01:30:49.119Z,22.77
2019-04-07T01:33:19.543Z,22.30
2019-04-07T01:35:50.402Z,22.60
2019-04-07T01:38:21.325Z,22.93
2019-04-07T01:40:56.796Z,22.50
2019-04-07T01:43:29.233Z,24.00
2019-04-07T01:46:11.037Z,25.27
2019-04-07T01:48:49.421Z,25.35
2019-04-07T01:51:40.097Z,27.42
2019-04-07T01:54:21.809Z,27.07
2019-04-07T01:57:00.178Z,26.07
2019-04-07T01:59:48.686Z,26.20
2019-04-07T02:02:26.619Z,29.98
2019-04-07T02:05:01.422Z,30.37
2019-04-07T02:07:33.804Z,31.25
2019-04-07T02:10:07.630Z,30.30
2019-04-07T02:12:42.375Z,29.80
2019-04-07T02:15:21.951Z,29.70
2019-04-07T02:17:53.779Z,29.10
2019-04-07T02:20:49.011Z,30.62
2019-04-07T02:23:23.999Z,28.57
2019-04-07T02:25:55.922Z,28.05
2019-04-07T02:28:30.815Z,29.37
2019-04-07T02:31:02.957Z,27.93
2019-04-07T02:33:35.271Z,28.07
2019-04-07T02:36:17.934Z,28.87
2019-04-07T02:38:41.424Z,28.17
2019-04-07T02:41:31.121Z,28.05
2019-04-07T02:44:05.776Z,28.95
2019-04-07T02:46:53.410Z,29.07
2019-04-07T02:49:30.232Z,28.70
2019-04-07T02:52:18.579Z,29.85
2019-04-07T02:54:53.599Z,29.18
2019-04-07T02:57:29.690Z,28.77
2019-04-07T03:00:01.825Z,30.52
2019-04-07T03:02:42.508Z,32.03
2019-04-07T03:05:22.291Z,33.78
2019-04-07T03:07:57.461Z,32.03
2019-04-07T03:10:33.411Z,35.00
2019-04-07T03:13:18.300Z,35.63
2019-04-07T03:15:52.994Z,35.00
2019-04-07T03:18:31.634Z,37.10
2019-04-07T03:21:06.357Z,36.70
2019-04-07T03:23:51.397Z,37.13
2019-04-07T03:26:40.674Z,36.30
2019-04-07T03:29:18.441Z,36.85
2019-04-07T03:31:51.368Z,37.17
2019-04-07T03:34:40.816Z,36.35
2019-04-07T03:37:29.763Z,37.38
2019-04-07T03:39:54.544Z,38.45
2019-04-07T03:42:27.273Z,36.45
2019-04-07T03:44:59.136Z,37.53
2019-04-07T03:47:37.614Z,37.50
2019-04-07T03:50:12.607Z,37.75
2019-04-07T03:52:54.484Z,38.10
2019-04-07T03:55:32.444Z,37.88
2019-04-07T03:58:14.113Z,37.78
2019-04-07T04:01:20.697Z,40.10
2019-04-07T04:04:07.829Z,41.20
2019-04-07T04:06:56.681Z,39.13
2019-04-07T04:09:39.746Z,38.92
2019-04-07T04:12:21.123Z,38.63
2019-04-07T04:15:15.175Z,37.60
2019-04-07T04:17:45.708Z,38.98
2019-04-07T04:20:16.195Z,38.48
2019-04-07T04:22:46.562Z,37.35
2019-04-07T04:25:17.222Z,37.85
2019-04-07T04:27:48.520Z,38.23
2019-04-07T04:30:19.312Z,36.73
2019-04-07T04:32:49.705Z,36.40
2019-04-07T04:35:20.095Z,37.15
2019-04-07T04:37:53.392Z,36.65
2019-04-07T04:40:22.458Z,37.55
2019-04-07T04:42:54.935Z,39.03
2019-04-07T04:45:25.308Z,37.90
2019-04-07T04:47:56.201Z,38.67
2019-04-07T04:50:27.443Z,38.70
2019-04-07T04:52:58.556Z,39.83
2019-04-07T04:55:29.733Z,40.08
2019-04-07T04:58:00.331Z,39.08
2019-04-07T05:00:32.103Z,39.42
2019-04-07T05:03:03.037Z,38.75
2019-04-07T05:05:33.293Z,38.53
2019-04-07T05:08:05.500Z,39.95
2019-04-07T05:10:37.008Z,41.05
2019-04-07T05:13:07.739Z,41.13
2019-04-07T05:15:38.025Z,39.45
2019-04-07T05:18:09.783Z,41.13
2019-04-07T05:20:40.761Z,40.50
2019-04-07T05:23:11.360Z,43.00
2019-04-07T05:25:42.795Z,43.83
2019-04-07T05:28:13.235Z,43.45
2019-04-07T05:30:44.179Z,42.85
2019-04-07T05:33:14.431Z,41.33
2019-04-07T05:35:45.020Z,42.10
2019-04-07T05:38:17.950Z,42.78
2019-04-07T05:40:48.200Z,43.75
2019-04-07T05:43:18.553Z,43.23
2019-04-07T05:45:48.882Z,42.78
2019-04-07T05:48:20.300Z,40.98
2019-04-07T05:50:51.322Z,42.93
2019-04-07T05:53:22.361Z,42.90
2019-04-07T05:55:59.910Z,42.98
2019-04-07T05:58:30.248Z,44.00
2019-04-07T06:01:00.728Z,42.73
2019-04-07T06:03:31.804Z,42.67
2019-04-07T06:06:02.869Z,42.27
2019-04-07T06:08:37.954Z,43.52
2019-04-07T06:11:06.193Z,44.08
2019-04-07T06:13:36.680Z,42.75
2019-04-07T06:16:07.952Z,40.58
2019-04-07T06:18:39.438Z,39.73
2019-04-07T06:21:10.207Z,40.33
2019-04-07T06:23:41.623Z,40.15
2019-04-07T06:26:13.069Z,39.05
2019-04-07T06:28:43.890Z,37.88
2019-04-07T06:31:15.678Z,38.78
2019-04-07T06:33:46.806Z,38.73
2019-04-07T06:36:19.444Z,38.38
2019-04-07T06:38:51.820Z,37.65
2019-04-07T06:41:21.780Z,36.77
2019-04-07T06:44:08.204Z,36.75
2019-04-07T06:46:33.436Z,34.83
2019-04-07T06:49:05.911Z,36.33
2019-04-07T06:51:54.479Z,35.33
2019-04-07T06:54:40.045Z,35.70
2019-04-07T06:57:12.325Z,36.80
2019-04-07T07:00:04.167Z,35.30
2019-04-07T07:02:36.834Z,36.23
2019-04-07T07:05:12.022Z,35.68
2019-04-07T07:07:43.498Z,37.23
2019-04-07T07:10:28.693Z,35.30
2019-04-07T07:13:01.933Z,35.05
2019-04-07T07:15:50.186Z,34.18
2019-04-07T07:18:23.693Z,34.30
2019-04-07T07:21:05.122Z,34.98
2019-04-07T07:23:44.824Z,34.88
2019-04-07T07:26:12.295Z,35.20
2019-04-07T07:28:43.952Z,36.42
2019-04-07T07:31:15.478Z,37.03
2019-04-07T07:33:46.106Z,36.25
2019-04-07T07:36:19.157Z,36.42
2019-04-07T07:38:56.331Z,35.92
2019-04-07T07:41:22.367Z,36.45
2019-04-07T07:43:52.381Z,36.77
2019-04-07T07:46:23.782Z,38.63
2019-04-07T07:48:58.778Z,39.48
2019-04-07T07:51:26.935Z,39.88
2019-04-07T07:54:00.750Z,38.33
2019-04-07T07:56:29.300Z,37.80
2019-04-07T07:59:01.360Z,37.20
2019-04-07T08:01:32.221Z,38.50
2019-04-07T08:04:03.484Z,35.85
2019-04-07T08:06:33.991Z,34.35
2019-04-07T08:09:13.712Z,34.60
2019-04-07T08:11:39.944Z,35.43
2019-04-07T08:14:15.486Z,35.90
2019-04-07T08:16:43.577Z,31.95
2019-04-07T08:19:14.074Z,30.85
2019-04-07T08:21:45.582Z,33.05
2019-04-07T08:24:19.238Z,33.85
2019-04-07T08:29:19.022Z,34.95
2019-04-07T08:31:53.176Z,34.48
2019-04-07T08:34:22.128Z,34.67
2019-04-07T08:36:53.026Z,34.23
2019-04-07T08:39:26.677Z,36.28
2019-04-07T08:41:56.082Z,35.78
2019-04-07T08:44:29.287Z,35.43
2019-04-07T08:46:59.019Z,35.25
2019-04-07T08:49:32.321Z,35.55
2019-04-07T08:52:07.990Z,36.38
2019-04-07T08:54:34.031Z,34.73
2019-04-07T08:57:11.346Z,35.30
2019-04-07T08:59:42.960Z,34.40
2019-04-07T09:02:13.670Z,36.08
2019-04-07T09:04:49.959Z,37.08
2019-04-07T09:07:17.552Z,36.95
2019-04-07T09:09:49.136Z,35.88
2019-04-07T09:12:20.680Z,36.08
2019-04-07T09:14:51.390Z,35.35
2019-04-07T09:17:32.262Z,34.88
2019-04-07T09:20:10.559Z,35.13
2019-04-07T09:22:43.493Z,34.90
2019-04-07T09:25:21.495Z,36.38
2019-04-07T09:27:54.015Z,35.40
2019-04-07T09:30:35.605Z,35.48
2019-04-07T09:33:24.244Z,34.48
2019-04-07T09:36:05.318Z,35.52
2019-04-07T09:38:57.017Z,35.50
2019-04-07T09:41:41.643Z,35.17
2019-04-07T09:44:22.292Z,36.08
2019-04-07T09:46:54.253Z,35.30
2019-04-07T09:49:30.914Z,35.85
2019-04-07T09:52:13.215Z,34.90
2019-04-07T09:54:51.809Z,32.08
2019-04-07T09:57:25.886Z,34.05
2019-04-07T09:59:58.065Z,33.48
2019-04-07T10:02:35.492Z,34.88
2019-04-07T10:05:26.114Z,34.45
2019-04-07T10:07:59.279Z,32.70
2019-04-07T10:10:42.006Z,33.60
2019-04-07T10:13:14.574Z,32.38
2019-04-07T10:15:54.998Z,33.13
2019-04-07T10:18:34.828Z,32.40
2019-04-07T10:21:09.886Z,32.38
2019-04-07T10:23:57.445Z,31.65
2019-04-07T10:26:47.515Z,31.40
2019-04-07T10:29:38.189Z,32.78
2019-04-07T10:32:27.054Z,29.45
2019-04-07T10:35:08.781Z,29.32
2019-04-07T10:37:51.334Z,28.98
2019-04-07T10:40:35.705Z,27.87
2019-04-07T10:45:56.061Z,27.45
2019-04-07T10:48:40.137Z,27.07
2019-04-07T10:54:47.101Z,26.35
2019-04-07T10:57:59.859Z,26.40
2019-04-07T11:03:21.391Z,25.37
2019-04-07T11:05:53.722Z,25.02
2019-04-07T11:08:41.037Z,29.18
2019-04-07T11:14:45.469Z,28.25
2019-04-07T11:17:17.544Z,28.35
2019-04-07T11:23:19.150Z,29.00
2019-04-07T11:25:51.353Z,26.85
2019-04-07T11:28:32.184Z,26.45
2019-04-07T11:31:16.824Z,24.85
2019-04-07T11:33:51.350Z,25.43
2019-04-07T11:36:32.012Z,25.27
2019-04-07T11:39:11.146Z,25.45
2019-04-07T11:41:52.722Z,25.65
2019-04-07T11:44:34.006Z,26.45
2019-04-07T11:47:15.368Z,26.52
2019-04-07T11:49:49.584Z,27.35
2019-04-07T11:55:00.962Z,26.00
2019-04-07T11:57:34.336Z,27.73
2019-04-07T12:00:18.395Z,26.87
2019-04-07T12:02:53.651Z,28.30
2019-04-07T12:05:26.796Z,26.60
2019-04-07T12:08:16.939Z,27.10
2019-04-07T12:10:58.523Z,26.35
2019-04-07T12:13:37.445Z,26.57
2019-04-07T12:16:15.682Z,25.48
2019-04-07T12:18:52.457Z,24.20
2019-04-07T12:21:25.468Z,26.87
2019-04-07T12:26:51.832Z,24.85
2019-04-07T12:29:38.694Z,26.20
2019-04-07T12:32:28.278Z,26.87
2019-04-07T12:35:01.108Z,27.42
2019-04-07T12:37:39.251Z,26.50
2019-04-07T12:40:10.925Z,26.65
2019-04-07T12:42:59.259Z,25.57
2019-04-07T12:45:37.366Z,25.45
2019-04-07T12:48:11.802Z,25.08
2019-04-07T12:50:51.047Z,26.02
2019-04-07T12:53:23.640Z,24.92
2019-04-07T12:56:00.772Z,22.87
2019-04-07T12:58:50.606Z,23.67
2019-04-07T13:01:22.902Z,21.65
2019-04-07T13:04:11.166Z,24.37
2019-04-07T13:06:59.658Z,24.87
2019-04-07T13:09:34.552Z,24.70
2019-04-07T13:12:06.594Z,24.45
2019-04-07T13:14:39.965Z,23.83
2019-04-07T13:20:00.965Z,23.70
2019-04-07T13:22:34.424Z,23.55
2019-04-07T13:27:41.569Z,22.80
2019-04-07T13:30:21.366Z,23.38
2019-04-07T13:33:01.912Z,22.85
2019-04-07T13:35:33.061Z,23.15
2019-04-07T13:38:05.572Z,22.50
2019-04-07T13:40:38.275Z,21.65
2019-04-07T13:43:18.956Z,22.77
2019-04-07T13:45:53.426Z,23.18
2019-04-07T13:50:55.665Z,22.75
2019-04-07T13:53:36.707Z,22.75
2019-04-07T13:56:09.938Z,22.45
2019-04-07T14:01:31.149Z,23.38
2019-04-07T14:04:12.040Z,22.60
2019-04-07T14:06:54.427Z,23.20
2019-04-07T14:09:41.736Z,24.02
2019-04-07T14:12:17.320Z,22.20
2019-04-07T14:14:53.867Z,22.65
2019-04-07T14:17:26.157Z,21.35
2019-04-07T14:20:04.891Z,21.52
2019-04-07T14:22:39.945Z,21.42
2019-04-07T14:25:12.897Z,22.07
2019-04-07T14:27:50.733Z,22.22
2019-04-07T14:30:34.463Z,22.35
2019-04-07T14:35:59.678Z,21.15
2019-04-07T14:38:35.555Z,21.55
2019-04-07T14:41:09.918Z,23.25
2019-04-07T14:44:00.080Z,22.52
2019-04-07T14:46:48.999Z,22.27
2019-04-07T14:49:33.316Z,21.48
2019-04-07T14:52:21.000Z,21.73
2019-04-07T14:55:09.579Z,22.50
2019-04-07T14:57:53.586Z,21.87
2019-04-07T15:00:29.221Z,21.57
2019-04-07T15:02:59.583Z,22.52
2019-04-07T15:05:35.248Z,22.37
2019-04-07T15:08:17.196Z,21.87
2019-04-07T15:10:50.097Z,21.80
2019-04-07T15:13:27.909Z,22.30
2019-04-07T15:15:58.328Z,23.07
2019-04-07T15:18:29.681Z,22.65
2019-04-07T15:21:00.066Z,21.73
2019-04-07T15:23:32.274Z,22.98
2019-04-07T15:26:04.140Z,22.50
2019-04-07T15:28:34.695Z,21.73
2019-04-07T15:31:06.086Z,22.22
2019-04-07T15:33:37.061Z,21.93
2019-04-07T15:36:09.140Z,21.95
2019-04-07T15:38:40.837Z,21.68
2019-04-07T15:41:15.365Z,22.20
2019-04-07T15:43:44.112Z,21.45
2019-04-07T15:46:17.340Z,22.77
2019-04-07T15:48:47.642Z,22.35
2019-04-07T15:51:19.632Z,22.62
2019-04-07T15:53:51.962Z,21.52
2019-04-07T15:56:22.188Z,21.17
2019-04-07T15:58:52.908Z,21.42
2019-04-07T16:01:23.786Z,20.92
2019-04-07T16:03:54.851Z,21.23
2019-04-07T16:06:25.961Z,21.57
2019-04-07T16:08:59.599Z,22.05
2019-04-07T16:11:30.221Z,21.75
2019-04-07T16:14:00.441Z,21.27
2019-04-07T16:16:30.805Z,20.97
2019-04-07T16:19:01.817Z,20.95
2019-04-07T16:21:33.114Z,21.60
2019-04-07T16:24:03.776Z,21.10
2019-04-07T16:26:36.973Z,20.88
2019-04-07T16:29:08.068Z,21.35
2019-04-07T16:31:38.085Z,22.17
2019-04-07T16:34:10.339Z,21.25
2019-04-07T16:36:41.313Z,22.00
2019-04-07T16:39:11.864Z,21.42
2019-04-07T16:41:44.207Z,21.27
2019-04-07T16:44:14.457Z,21.75
2019-04-07T16:46:45.631Z,21.27
2019-04-07T16:49:17.967Z,21.52
2019-04-07T16:51:49.455Z,19.77
2019-04-07T16:54:19.945Z,21.42
2019-04-07T16:56:54.685Z,21.45
2019-04-07T16:59:22.522Z,21.10
2019-04-07T17:01:52.993Z,21.68
2019-04-07T17:04:23.308Z,21.77
2019-04-07T17:07:00.188Z,22.15
2019-04-07T17:09:28.052Z,22.30
2019-04-07T17:11:57.858Z,21.20
2019-04-07T17:14:32.092Z,20.52
2019-04-07T17:17:00.445Z,21.70
2019-04-07T17:19:32.167Z,22.17
2019-04-07T17:22:03.083Z,22.15
2019-04-07T17:24:34.527Z,23.90
2019-04-07T17:27:07.708Z,22.35
2019-04-07T17:29:36.798Z,22.73
2019-04-07T17:32:10.916Z,23.10
2019-04-07T17:35:17.453Z,22.77
2019-04-07T17:38:06.556Z,22.48
2019-04-07T17:40:37.937Z,22.77
2019-04-07T17:43:10.686Z,22.32
2019-04-07T17:46:30.740Z,22.80
2019-04-07T17:49:33.085Z,23.18
2019-04-07T17:52:11.117Z,23.95
2019-04-07T17:58:08.893Z,22.98
2019-04-07T18:04:00.716Z,23.83
2019-04-07T18:06:40.429Z,24.15
2019-04-07T18:09:29.838Z,24.45
2019-04-07T18:29:31.081Z,27.82
2019-04-07T18:32:11.215Z,28.73
2019-04-07T18:34:44.973Z,29.15
2019-04-07T18:37:25.769Z,29.82
2019-04-07T18:40:16.339Z,30.90
2019-04-07T18:49:40.909Z,32.63
2019-04-07T18:52:36.445Z,32.95
2019-04-07T18:55:16.047Z,30.72
2019-04-07T18:58:04.579Z,36.10
2019-04-07T19:00:57.621Z,33.85
2019-04-07T19:03:53.354Z,33.08
2019-04-07T19:06:28.848Z,37.53
2019-04-07T19:09:13.119Z,35.70
2019-04-07T19:12:13.279Z,42.50
2019-04-07T19:14:45.974Z,44.05
2019-04-07T19:17:24.047Z,41.90
2019-04-07T19:22:39.811Z,35.92
2019-04-07T19:25:17.464Z,37.55
2019-04-07T19:28:05.993Z,38.33
2019-04-07T19:30:55.102Z,41.02
2019-04-07T19:33:45.323Z,43.17
2019-04-07T19:36:23.125Z,40.95
2019-04-07T19:39:00.753Z,41.60
2019-04-07T19:41:37.008Z,40.73
2019-04-07T19:44:33.928Z,42.48
2019-04-07T19:47:13.006Z,41.48
2019-04-07T19:49:52.960Z,40.78
2019-04-07T19:52:27.570Z,40.55
2019-04-07T19:55:08.547Z,39.98
2019-04-07T19:57:43.306Z,38.83
2019-04-07T20:00:33.313Z,39.48
2019-04-07T20:03:09.615Z,37.75
2019-04-07T20:05:41.744Z,39.25
2019-04-07T20:08:25.594Z,41.85
2019-04-07T20:13:58.683Z,55.83
2019-04-07T20:16:36.798Z,49.67
2019-04-07T20:19:18.750Z,50.35
2019-04-07T20:21:54.714Z,49.65
2019-04-07T20:30:06.270Z,57.78
2019-04-07T20:32:44.726Z,55.75
2019-04-07T20:35:16.783Z,49.30
2019-04-07T20:38:06.309Z,49.13
2019-04-07T20:40:43.339Z,48.68
2019-04-07T20:43:29.632Z,49.98
2019-04-07T20:46:23.933Z,51.92
2019-04-07T20:49:12.290Z,63.00
2019-04-07T20:51:48.004Z,67.65
2019-04-07T20:57:16.960Z,56.02
2019-04-07T20:59:54.131Z,53.35
2019-04-07T21:02:39.246Z,52.55
2019-04-07T21:05:46.265Z,52.20
2019-04-07T21:08:23.340Z,53.63
2019-04-07T21:11:04.748Z,53.68
2019-04-07T21:13:55.389Z,54.70
2019-04-07T21:16:36.849Z,54.42
2019-04-07T21:19:37.500Z,58.65
2019-04-07T21:22:09.052Z,57.80
2019-04-07T21:24:49.762Z,66.00
2019-04-07T21:27:36.180Z,58.25
2019-04-07T21:30:14.711Z,51.85
2019-04-07T21:33:03.241Z,53.73
2019-04-07T21:35:35.541Z,50.65
2019-04-07T21:38:29.694Z,51.37
2019-04-07T21:41:16.819Z,48.90
2019-04-07T21:43:48.865Z,49.93
2019-04-07T21:46:26.445Z,50.85
2019-04-07T21:49:04.051Z,49.98
2019-04-07T21:51:35.905Z,51.10
2019-04-07T21:54:07.914Z,51.92
2019-04-07T21:56:43.158Z,51.85
2019-04-07T21:59:26.561Z,52.38
2019-04-07T22:02:12.117Z,51.83
2019-04-07T22:04:59.593Z,56.33
2019-04-07T22:07:37.597Z,53.60
2019-04-07T22:10:13.718Z,52.67
2019-04-07T22:12:44.305Z,52.98
2019-04-07T22:15:45.880Z,53.92
2019-04-07T22:18:08.966Z,54.20
2019-04-07T22:20:39.954Z,55.67
2019-04-07T22:23:10.205Z,55.17
2019-04-07T22:25:46.501Z,54.10
2019-04-07T22:28:16.843Z,55.58
2019-04-07T22:30:52.206Z,54.90
2019-04-07T22:33:25.304Z,56.73
2019-04-07T22:36:01.803Z,59.13
2019-04-07T22:38:32.083Z,58.08
2019-04-07T22:41:02.766Z,58.48
2019-04-07T22:43:36.816Z,60.38
2019-04-07T22:46:16.407Z,61.08
2019-04-07T22:48:39.148Z,61.85
2019-04-07T22:51:12.053Z,62.50
2019-04-07T22:53:49.657Z,60.55
2019-04-07T22:56:32.331Z,60.08
2019-04-07T22:59:03.614Z,58.80
2019-04-07T23:01:34.051Z,57.75
2019-04-07T23:04:04.413Z,57.60
2019-04-07T23:06:34.715Z,57.08
2019-04-07T23:09:07.793Z,58.08
2019-04-07T23:11:44.854Z,57.10
2019-04-07T23:14:15.740Z,57.35
2019-04-07T23:16:46.459Z,58.65
2019-04-07T23:19:19.724Z,59.03
2019-04-07T23:21:49.989Z,57.05
2019-04-07T23:24:36.935Z,57.25
2019-04-07T23:27:08.166Z,56.77
2019-04-07T23:29:38.777Z,57.62
2019-04-07T23:32:17.995Z,58.08
2019-04-07T23:34:48.300Z,58.17
2019-04-07T23:37:18.644Z,57.25
2019-04-07T23:39:49.592Z,59.75
2019-04-07T23:42:24.330Z,60.15
2019-04-07T23:47:35.503Z,60.25
2019-04-07T23:50:07.730Z,59.60
2019-04-07T23:52:39.000Z,62.25
2019-04-07T23:55:11.391Z,60.50
2019-04-07T23:57:42.322Z,61.80
